Penney Farms, Florida
Current Conditions -  °F | °C
As of 12:35 AM on Friday 26 Dec 2014 (Local Time) from KVQQ Reporting Station
Haze Haze  
Wind Chill: 37°   Ceiling: Unl
Heat Index: 37°   Visibility: 1.5mi
Dew Point: 37°   Wind: 0mph
Humidity: 100%   Direction: NA
Pressure: 30.25"   Gusts: NA
Location:  29.98°N, 81.81°W
Report Text: KVQQ 260535Z AUTO 00000KT 1 1/2SM BR CLR 03/03 A3025 RMK AO2
Loading
Personal Weather Stations






























Interactive Weather Map New forecast layout! Learn more

10-Day Weather Forecast

Advertisements
Track Severe Weather on mobile